createdAt,value
2022-08-30T00:03:46.007Z,17.43
2022-08-30T00:13:51.152Z,18.45
2022-08-30T00:23:53.646Z,20.62
2022-08-30T00:33:55.441Z,19.70
2022-08-30T00:43:57.809Z,17.48
2022-08-30T00:54:03.694Z,18.36
2022-08-30T01:04:05.327Z,20.58
2022-08-30T01:14:07.845Z,21.40
2022-08-30T01:24:09.834Z,20.29
2022-08-30T01:34:12.122Z,17.63
2022-08-30T01:44:15.117Z,18.49
2022-08-30T01:54:16.861Z,20.62
2022-08-30T02:04:19.053Z,21.41
2022-08-30T02:14:21.302Z,20.09
2022-08-30T02:24:23.201Z,17.43
2022-08-30T02:34:25.029Z,18.18
2022-08-30T02:44:26.982Z,20.22
2022-08-30T02:54:28.812Z,20.87
2022-08-30T03:04:30.653Z,19.62
2022-08-30T03:14:32.744Z,16.93
2022-08-30T03:24:35.055Z,17.82
2022-08-30T03:34:36.899Z,20.06
2022-08-30T03:44:38.810Z,21.15
2022-08-30T03:54:40.615Z,20.31
2022-08-30T04:04:42.398Z,17.90
2022-08-30T04:14:44.542Z,18.59
2022-08-30T04:24:46.349Z,20.66
2022-08-30T04:34:48.206Z,21.74
2022-08-30T04:44:51.819Z,20.91
2022-08-30T04:54:54.791Z,18.66
2022-08-30T05:05:15.511Z,19.91
2022-08-30T05:15:18.474Z,23.30
2022-08-30T05:25:21.548Z,23.90
2022-08-30T05:35:25.804Z,22.56
2022-08-30T05:45:27.968Z,21.70
2022-08-30T05:55:29.986Z,21.69
2022-08-30T06:05:33.533Z,21.72
2022-08-30T06:15:38.523Z,21.29
2022-08-30T06:25:42.153Z,22.82
2022-08-30T06:35:58.423Z,23.90
2022-08-30T06:46:06.474Z,22.51
2022-08-30T06:56:09.921Z,22.83
2022-08-30T07:06:11.878Z,24.21
2022-08-30T07:16:14.563Z,25.56
2022-08-30T07:26:20.414Z,25.58
2022-08-30T07:36:22.908Z,25.19
2022-08-30T07:46:25.146Z,24.89
2022-08-30T07:56:27.116Z,25.15
2022-08-30T08:06:35.121Z,27.41
2022-08-30T08:16:38.061Z,30.69
2022-08-30T08:26:40.946Z,30.69
2022-08-30T08:36:49.149Z,31.78
2022-08-30T08:46:51.573Z,34.33
2022-08-30T08:56:54.392Z,35.38
2022-08-30T09:06:59.328Z,34.11
2022-08-30T09:17:04.434Z,33.28
2022-08-30T09:27:25.034Z,32.51
2022-08-30T09:37:33.185Z,29.33
2022-08-30T09:47:35.732Z,27.57
2022-08-30T09:57:46.607Z,26.27
2022-08-30T10:07:48.599Z,25.81
2022-08-30T10:17:59.754Z,26.33
2022-08-30T10:28:16.997Z,27.09
2022-08-30T10:38:21.124Z,27.70
2022-08-30T10:48:35.913Z,27.76
2022-08-30T10:58:39.178Z,27.40
2022-08-30T11:08:53.867Z,27.18
2022-08-30T11:18:57.517Z,27.24
2022-08-30T11:29:00.665Z,27.34
2022-08-30T11:39:05.802Z,27.21
2022-08-30T11:49:13.408Z,26.58
2022-08-30T11:59:35.880Z,26.56
2022-08-30T12:09:38.013Z,27.02
2022-08-30T12:19:49.077Z,26.82
2022-08-30T12:29:57.429Z,26.17
2022-08-30T12:40:21.874Z,25.66
2022-08-30T12:50:26.481Z,25.46
2022-08-30T13:00:33.036Z,25.29
2022-08-30T13:10:36.268Z,25.70
2022-08-30T13:20:38.809Z,26.34
2022-08-30T13:30:41.206Z,26.49
2022-08-30T13:40:45.055Z,26.41
2022-08-30T13:50:47.432Z,26.37
2022-08-30T14:00:53.726Z,26.25
2022-08-30T14:10:56.207Z,26.08
2022-08-30T14:20:59.653Z,25.71
2022-08-30T14:31:01.603Z,25.36
2022-08-30T14:41:04.152Z,24.86
2022-08-30T14:51:13.943Z,24.32
2022-08-30T15:01:16.087Z,23.96
2022-08-30T15:11:19.303Z,23.60
2022-08-30T15:21:32.159Z,23.30
2022-08-30T15:42:56.036Z,22.73
2022-08-30T15:52:59.011Z,22.44
2022-08-30T16:03:03.703Z,22.12
2022-08-30T16:13:05.669Z,21.84
2022-08-30T16:23:10.527Z,21.56
2022-08-30T16:33:18.967Z,21.24
2022-08-30T16:43:21.607Z,20.79
2022-08-30T16:53:24.830Z,20.33
2022-08-30T17:03:27.565Z,19.99
2022-08-30T17:13:33.328Z,21.84
2022-08-30T17:23:35.676Z,22.71
2022-08-30T17:33:41.102Z,21.05
2022-08-30T17:43:44.763Z,20.19
2022-08-30T17:53:49.506Z,19.63
2022-08-30T18:03:57.113Z,21.38
2022-08-30T18:14:05.114Z,23.96
2022-08-30T18:24:08.043Z,23.44
2022-08-30T18:34:12.842Z,21.30
2022-08-30T18:44:27.802Z,20.18
2022-08-30T18:54:33.177Z,19.46
2022-08-30T19:04:36.140Z,21.07
2022-08-30T19:14:38.553Z,23.68
2022-08-30T19:24:40.925Z,23.17
2022-08-30T19:34:45.395Z,21.05
2022-08-30T19:44:50.201Z,19.74
2022-08-30T19:54:56.109Z,21.14
2022-08-30T20:04:58.525Z,21.86
2022-08-30T20:15:01.553Z,20.09
2022-08-30T20:25:05.805Z,21.32
2022-08-30T20:35:18.915Z,23.61
2022-08-30T20:45:24.225Z,22.79
2022-08-30T20:55:33.516Z,20.54
2022-08-30T21:05:35.561Z,21.49
2022-08-30T21:15:38.672Z,23.67
2022-08-30T21:25:41.483Z,22.95
2022-08-30T21:36:01.689Z,20.59
2022-08-30T21:46:08.504Z,21.41
2022-08-30T21:56:13.077Z,21.84
2022-08-30T22:06:17.383Z,19.79
2022-08-30T22:16:19.623Z,21.00
2022-08-30T22:26:22.481Z,23.18
2022-08-30T22:36:32.262Z,22.42
2022-08-30T22:46:35.812Z,20.05
2022-08-30T22:56:38.494Z,21.02
2022-08-30T23:06:40.324Z,23.20
2022-08-30T23:16:42.250Z,22.34
2022-08-30T23:27:03.999Z,20.08
2022-08-30T23:37:24.380Z,21.10
2022-08-30T23:47:44.848Z,23.22
2022-08-30T23:58:05.588Z,22.19
